Longueuil, Canada
Current Conditions -  °F | °C
As of 2:42 AM on Sunday 23 Nov 2014 (Local Time) from CYHU Reporting Station
Haze Haze  
Wind Chill: 30°   Ceiling: 500
Heat Index: 37°   Visibility: 3mi
Dew Point: 36°   Wind: 10mph
Humidity: 93%   Direction: 240°WSW
Pressure: 29.93"   Gusts: NA
Location:  45.54°N, 73.49°W
Report Text: CYHU 230742Z AUTO 24009KT 3SM BR BKN005 OVC034 03/02 A2993 RMK SLP137
Loading
Personal Weather Stations






























Interactive Weather Map New forecast layout! Learn more

10-Day Weather Forecast

Advertisements
Track Severe Weather on mobile